sensor_id;sensor_type;location;lat;lon;timestamp;P1;durP1;ratioP1;P2;durP2;ratioP2
13764;SDS011;6953;48.810;9.204;2022-07-17T00:01:21;0.50;;;0.50;;
13764;SDS011;6953;48.810;9.204;2022-07-17T00:03:46;0.50;;;0.50;;
13764;SDS011;6953;48.810;9.204;2022-07-17T00:06:12;0.60;;;0.60;;
13764;SDS011;6953;48.810;9.204;2022-07-17T00:08:39;0.60;;;0.60;;
13764;SDS011;6953;48.810;9.204;2022-07-17T00:11:04;0.52;;;0.52;;
13764;SDS011;6953;48.810;9.204;2022-07-17T00:13:29;0.50;;;0.50;;
13764;SDS011;6953;48.810;9.204;2022-07-17T00:15:55;0.50;;;0.50;;
13764;SDS011;6953;48.810;9.204;2022-07-17T00:18:21;0.55;;;0.55;;
13764;SDS011;6953;48.810;9.204;2022-07-17T00:20:46;0.60;;;0.60;;
13764;SDS011;6953;48.810;9.204;2022-07-17T00:23:12;0.60;;;0.60;;
13764;SDS011;6953;48.810;9.204;2022-07-17T00:25:37;0.60;;;0.60;;
13764;SDS011;6953;48.810;9.204;2022-07-17T00:28:03;0.55;;;0.55;;
13764;SDS011;6953;48.810;9.204;2022-07-17T00:30:28;0.50;;;0.50;;
13764;SDS011;6953;48.810;9.204;2022-07-17T00:32:54;0.40;;;0.40;;
13764;SDS011;6953;48.810;9.204;2022-07-17T00:35:20;0.50;;;0.50;;
13764;SDS011;6953;48.810;9.204;2022-07-17T00:37:46;0.40;;;0.40;;
13764;SDS011;6953;48.810;9.204;2022-07-17T00:40:16;0.50;;;0.50;;
13764;SDS011;6953;48.810;9.204;2022-07-17T00:42:43;0.50;;;0.50;;
13764;SDS011;6953;48.810;9.204;2022-07-17T00:45:09;0.50;;;0.50;;
13764;SDS011;6953;48.810;9.204;2022-07-17T00:47:47;0.60;;;0.60;;
13764;SDS011;6953;48.810;9.204;2022-07-17T00:50:25;0.60;;;0.60;;
13764;SDS011;6953;48.810;9.204;2022-07-17T00:52:54;0.70;;;0.70;;
13764;SDS011;6953;48.810;9.204;2022-07-17T00:55:19;0.70;;;0.70;;
13764;SDS011;6953;48.810;9.204;2022-07-17T00:57:46;0.65;;;0.65;;
13764;SDS011;6953;48.810;9.204;2022-07-17T01:00:13;0.60;;;0.60;;
13764;SDS011;6953;48.810;9.204;2022-07-17T01:02:40;0.60;;;0.60;;
13764;SDS011;6953;48.810;9.204;2022-07-17T01:05:05;0.57;;;0.57;;
13764;SDS011;6953;48.810;9.204;2022-07-17T01:07:32;0.60;;;0.60;;
13764;SDS011;6953;48.810;9.204;2022-07-17T01:09:58;0.60;;;0.60;;
13764;SDS011;6953;48.810;9.204;2022-07-17T01:12:24;0.60;;;0.60;;
13764;SDS011;6953;48.810;9.204;2022-07-17T01:14:50;0.50;;;0.50;;
13764;SDS011;6953;48.810;9.204;2022-07-17T01:17:17;0.60;;;0.60;;
13764;SDS011;6953;48.810;9.204;2022-07-17T01:19:42;0.60;;;0.60;;
13764;SDS011;6953;48.810;9.204;2022-07-17T01:22:08;0.57;;;0.57;;
13764;SDS011;6953;48.810;9.204;2022-07-17T01:24:33;0.60;;;0.60;;
13764;SDS011;6953;48.810;9.204;2022-07-17T01:26:58;0.70;;;0.70;;
13764;SDS011;6953;48.810;9.204;2022-07-17T01:29:24;0.60;;;0.60;;
13764;SDS011;6953;48.810;9.204;2022-07-17T01:31:49;0.60;;;0.60;;
13764;SDS011;6953;48.810;9.204;2022-07-17T01:34:15;0.70;;;0.70;;
13764;SDS011;6953;48.810;9.204;2022-07-17T01:36:40;0.60;;;0.60;;
13764;SDS011;6953;48.810;9.204;2022-07-17T01:39:06;0.60;;;0.60;;
13764;SDS011;6953;48.810;9.204;2022-07-17T01:41:32;0.60;;;0.60;;
13764;SDS011;6953;48.810;9.204;2022-07-17T01:43:58;0.50;;;0.50;;
13764;SDS011;6953;48.810;9.204;2022-07-17T01:46:23;0.50;;;0.50;;
13764;SDS011;6953;48.810;9.204;2022-07-17T01:48:50;0.50;;;0.50;;
13764;SDS011;6953;48.810;9.204;2022-07-17T01:51:15;0.60;;;0.60;;
13764;SDS011;6953;48.810;9.204;2022-07-17T01:53:40;0.60;;;0.60;;
13764;SDS011;6953;48.810;9.204;2022-07-17T01:56:06;0.60;;;0.60;;
13764;SDS011;6953;48.810;9.204;2022-07-17T01:58:32;0.60;;;0.60;;
13764;SDS011;6953;48.810;9.204;2022-07-17T02:00:58;0.60;;;0.60;;
13764;SDS011;6953;48.810;9.204;2022-07-17T02:03:23;0.50;;;0.50;;
13764;SDS011;6953;48.810;9.204;2022-07-17T02:05:49;0.60;;;0.60;;
13764;SDS011;6953;48.810;9.204;2022-07-17T02:08:14;0.40;;;0.40;;
13764;SDS011;6953;48.810;9.204;2022-07-17T02:10:39;0.30;;;0.30;;
13764;SDS011;6953;48.810;9.204;2022-07-17T02:13:05;0.30;;;0.30;;
13764;SDS011;6953;48.810;9.204;2022-07-17T02:15:30;0.30;;;0.30;;
13764;SDS011;6953;48.810;9.204;2022-07-17T02:17:56;0.30;;;0.30;;
13764;SDS011;6953;48.810;9.204;2022-07-17T02:20:21;0.30;;;0.30;;
13764;SDS011;6953;48.810;9.204;2022-07-17T02:22:47;0.30;;;0.30;;
13764;SDS011;6953;48.810;9.204;2022-07-17T02:25:13;0.30;;;0.30;;
13764;SDS011;6953;48.810;9.204;2022-07-17T02:27:39;0.30;;;0.30;;
13764;SDS011;6953;48.810;9.204;2022-07-17T02:30:06;0.30;;;0.30;;
13764;SDS011;6953;48.810;9.204;2022-07-17T02:32:34;0.30;;;0.30;;
13764;SDS011;6953;48.810;9.204;2022-07-17T02:34:59;0.30;;;0.30;;
13764;SDS011;6953;48.810;9.204;2022-07-17T02:37:24;0.30;;;0.30;;
13764;SDS011;6953;48.810;9.204;2022-07-17T02:39:50;0.40;;;0.40;;
13764;SDS011;6953;48.810;9.204;2022-07-17T02:42:19;0.40;;;0.40;;
13764;SDS011;6953;48.810;9.204;2022-07-17T02:44:51;0.30;;;0.30;;
13764;SDS011;6953;48.810;9.204;2022-07-17T02:47:25;0.30;;;0.30;;
13764;SDS011;6953;48.810;9.204;2022-07-17T02:49:58;0.30;;;0.30;;
13764;SDS011;6953;48.810;9.204;2022-07-17T02:52:26;0.30;;;0.30;;
13764;SDS011;6953;48.810;9.204;2022-07-17T02:54:52;0.40;;;0.40;;
13764;SDS011;6953;48.810;9.204;2022-07-17T02:57:18;0.30;;;0.30;;
13764;SDS011;6953;48.810;9.204;2022-07-17T02:59:43;0.30;;;0.30;;
13764;SDS011;6953;48.810;9.204;2022-07-17T03:02:09;0.30;;;0.30;;
13764;SDS011;6953;48.810;9.204;2022-07-17T03:04:34;0.30;;;0.30;;
13764;SDS011;6953;48.810;9.204;2022-07-17T03:06:59;0.30;;;0.30;;
13764;SDS011;6953;48.810;9.204;2022-07-17T03:09:25;0.30;;;0.30;;
13764;SDS011;6953;48.810;9.204;2022-07-17T03:11:51;0.30;;;0.30;;
13764;SDS011;6953;48.810;9.204;2022-07-17T03:14:16;0.20;;;0.20;;
13764;SDS011;6953;48.810;9.204;2022-07-17T03:16:42;0.32;;;0.32;;
13764;SDS011;6953;48.810;9.204;2022-07-17T03:19:07;0.20;;;0.20;;
13764;SDS011;6953;48.810;9.204;2022-07-17T03:21:33;0.30;;;0.30;;
13764;SDS011;6953;48.810;9.204;2022-07-17T03:23:58;0.38;;;0.38;;
13764;SDS011;6953;48.810;9.204;2022-07-17T03:26:24;0.32;;;0.32;;
13764;SDS011;6953;48.810;9.204;2022-07-17T03:28:49;0.40;;;0.40;;
13764;SDS011;6953;48.810;9.204;2022-07-17T03:31:15;0.30;;;0.30;;
13764;SDS011;6953;48.810;9.204;2022-07-17T03:33:40;0.30;;;0.30;;
13764;SDS011;6953;48.810;9.204;2022-07-17T03:36:06;0.30;;;0.30;;
13764;SDS011;6953;48.810;9.204;2022-07-17T03:38:32;0.30;;;0.30;;
13764;SDS011;6953;48.810;9.204;2022-07-17T03:40:58;0.30;;;0.30;;
13764;SDS011;6953;48.810;9.204;2022-07-17T03:43:23;0.20;;;0.20;;
13764;SDS011;6953;48.810;9.204;2022-07-17T03:45:48;0.40;;;0.40;;
13764;SDS011;6953;48.810;9.204;2022-07-17T03:48:14;0.30;;;0.30;;
13764;SDS011;6953;48.810;9.204;2022-07-17T03:50:39;0.20;;;0.20;;
13764;SDS011;6953;48.810;9.204;2022-07-17T03:53:04;0.30;;;0.30;;
13764;SDS011;6953;48.810;9.204;2022-07-17T03:55:30;0.30;;;0.30;;
13764;SDS011;6953;48.810;9.204;2022-07-17T03:57:55;0.30;;;0.30;;
13764;SDS011;6953;48.810;9.204;2022-07-17T04:00:20;0.20;;;0.20;;
13764;SDS011;6953;48.810;9.204;2022-07-17T04:02:46;0.30;;;0.30;;
13764;SDS011;6953;48.810;9.204;2022-07-17T04:05:11;0.30;;;0.30;;
13764;SDS011;6953;48.810;9.204;2022-07-17T04:07:37;0.30;;;0.30;;
13764;SDS011;6953;48.810;9.204;2022-07-17T04:10:03;0.40;;;0.40;;
13764;SDS011;6953;48.810;9.204;2022-07-17T04:12:30;0.38;;;0.38;;
13764;SDS011;6953;48.810;9.204;2022-07-17T04:14:55;0.32;;;0.32;;
13764;SDS011;6953;48.810;9.204;2022-07-17T04:17:21;0.32;;;0.32;;
13764;SDS011;6953;48.810;9.204;2022-07-17T04:19:47;0.40;;;0.40;;
13764;SDS011;6953;48.810;9.204;2022-07-17T04:22:13;0.40;;;0.40;;
13764;SDS011;6953;48.810;9.204;2022-07-17T04:24:38;0.30;;;0.30;;
13764;SDS011;6953;48.810;9.204;2022-07-17T04:27:04;0.30;;;0.30;;
13764;SDS011;6953;48.810;9.204;2022-07-17T04:29:29;0.30;;;0.30;;
13764;SDS011;6953;48.810;9.204;2022-07-17T04:31:55;0.28;;;0.28;;
13764;SDS011;6953;48.810;9.204;2022-07-17T04:34:20;0.30;;;0.30;;
13764;SDS011;6953;48.810;9.204;2022-07-17T04:36:45;0.22;;;0.22;;
13764;SDS011;6953;48.810;9.204;2022-07-17T04:39:11;0.30;;;0.30;;
13764;SDS011;6953;48.810;9.204;2022-07-17T04:41:36;0.20;;;0.20;;
13764;SDS011;6953;48.810;9.204;2022-07-17T04:44:01;0.30;;;0.30;;
13764;SDS011;6953;48.810;9.204;2022-07-17T04:46:27;0.20;;;0.20;;
13764;SDS011;6953;48.810;9.204;2022-07-17T04:48:53;0.20;;;0.20;;
13764;SDS011;6953;48.810;9.204;2022-07-17T04:51:18;0.20;;;0.20;;
13764;SDS011;6953;48.810;9.204;2022-07-17T04:53:44;0.20;;;0.20;;
13764;SDS011;6953;48.810;9.204;2022-07-17T04:56:09;0.20;;;0.20;;
13764;SDS011;6953;48.810;9.204;2022-07-17T04:58:35;0.10;;;0.10;;
13764;SDS011;6953;48.810;9.204;2022-07-17T05:01:00;0.10;;;0.10;;
13764;SDS011;6953;48.810;9.204;2022-07-17T05:03:25;0.10;;;0.10;;
13764;SDS011;6953;48.810;9.204;2022-07-17T05:05:51;0.10;;;0.10;;
13764;SDS011;6953;48.810;9.204;2022-07-17T05:08:16;0.10;;;0.10;;
13764;SDS011;6953;48.810;9.204;2022-07-17T05:10:43;0.10;;;0.10;;
13764;SDS011;6953;48.810;9.204;2022-07-17T05:13:09;0.10;;;0.10;;
13764;SDS011;6953;48.810;9.204;2022-07-17T05:15:34;0.10;;;0.10;;
13764;SDS011;6953;48.810;9.204;2022-07-17T05:17:59;0.10;;;0.10;;
13764;SDS011;6953;48.810;9.204;2022-07-17T05:20:25;0.10;;;0.10;;
13764;SDS011;6953;48.810;9.204;2022-07-17T05:22:50;0.10;;;0.10;;
13764;SDS011;6953;48.810;9.204;2022-07-17T05:25:16;0.20;;;0.20;;
13764;SDS011;6953;48.810;9.204;2022-07-17T05:27:41;0.10;;;0.10;;
13764;SDS011;6953;48.810;9.204;2022-07-17T05:30:07;0.10;;;0.10;;
13764;SDS011;6953;48.810;9.204;2022-07-17T05:32:32;0.20;;;0.20;;
13764;SDS011;6953;48.810;9.204;2022-07-17T05:34:58;0.20;;;0.20;;
13764;SDS011;6953;48.810;9.204;2022-07-17T05:37:23;0.17;;;0.17;;
13764;SDS011;6953;48.810;9.204;2022-07-17T05:39:48;0.20;;;0.20;;
13764;SDS011;6953;48.810;9.204;2022-07-17T05:42:14;0.20;;;0.20;;
13764;SDS011;6953;48.810;9.204;2022-07-17T05:44:39;0.20;;;0.20;;
13764;SDS011;6953;48.810;9.204;2022-07-17T05:47:05;0.20;;;0.20;;
13764;SDS011;6953;48.810;9.204;2022-07-17T05:49:30;0.10;;;0.10;;
13764;SDS011;6953;48.810;9.204;2022-07-17T05:51:55;0.20;;;0.20;;
13764;SDS011;6953;48.810;9.204;2022-07-17T05:54:20;0.15;;;0.15;;
13764;SDS011;6953;48.810;9.204;2022-07-17T05:56:46;0.20;;;0.20;;
13764;SDS011;6953;48.810;9.204;2022-07-17T05:59:11;0.10;;;0.10;;
13764;SDS011;6953;48.810;9.204;2022-07-17T06:01:37;0.20;;;0.20;;
13764;SDS011;6953;48.810;9.204;2022-07-17T06:04:02;0.10;;;0.10;;
13764;SDS011;6953;48.810;9.204;2022-07-17T06:06:27;0.10;;;0.10;;
13764;SDS011;6953;48.810;9.204;2022-07-17T06:08:53;0.10;;;0.10;;
13764;SDS011;6953;48.810;9.204;2022-07-17T06:11:18;0.10;;;0.10;;
13764;SDS011;6953;48.810;9.204;2022-07-17T06:13:43;0.10;;;0.10;;
13764;SDS011;6953;48.810;9.204;2022-07-17T06:16:09;0.10;;;0.10;;
13764;SDS011;6953;48.810;9.204;2022-07-17T06:18:34;0.10;;;0.10;;
13764;SDS011;6953;48.810;9.204;2022-07-17T06:20:59;0.10;;;0.10;;
13764;SDS011;6953;48.810;9.204;2022-07-17T06:23:25;0.10;;;0.10;;
13764;SDS011;6953;48.810;9.204;2022-07-17T06:25:50;0.00;;;0.00;;
13764;SDS011;6953;48.810;9.204;2022-07-17T06:28:15;0.10;;;0.10;;
13764;SDS011;6953;48.810;9.204;2022-07-17T06:30:41;0.10;;;0.10;;
13764;SDS011;6953;48.810;9.204;2022-07-17T06:33:06;0.10;;;0.10;;
13764;SDS011;6953;48.810;9.204;2022-07-17T06:35:32;0.10;;;0.10;;
13764;SDS011;6953;48.810;9.204;2022-07-17T06:37:59;0.10;;;0.10;;
13764;SDS011;6953;48.810;9.204;2022-07-17T06:40:24;0.10;;;0.10;;
13764;SDS011;6953;48.810;9.204;2022-07-17T06:42:50;0.10;;;0.10;;
13764;SDS011;6953;48.810;9.204;2022-07-17T06:45:15;0.10;;;0.10;;
13764;SDS011;6953;48.810;9.204;2022-07-17T06:47:40;0.08;;;0.08;;
13764;SDS011;6953;48.810;9.204;2022-07-17T06:50:06;0.10;;;0.10;;
13764;SDS011;6953;48.810;9.204;2022-07-17T06:52:32;0.03;;;0.03;;
13764;SDS011;6953;48.810;9.204;2022-07-17T06:54:57;0.00;;;0.00;;
13764;SDS011;6953;48.810;9.204;2022-07-17T06:57:23;0.10;;;0.10;;
13764;SDS011;6953;48.810;9.204;2022-07-17T06:59:48;0.10;;;0.10;;
13764;SDS011;6953;48.810;9.204;2022-07-17T07:02:13;0.10;;;0.10;;
13764;SDS011;6953;48.810;9.204;2022-07-17T07:04:39;0.10;;;0.10;;
13764;SDS011;6953;48.810;9.204;2022-07-17T07:07:05;0.03;;;0.03;;
13764;SDS011;6953;48.810;9.204;2022-07-17T07:09:30;0.10;;;0.10;;
13764;SDS011;6953;48.810;9.204;2022-07-17T07:11:56;0.10;;;0.10;;
13764;SDS011;6953;48.810;9.204;2022-07-17T07:14:21;0.00;;;0.00;;
13764;SDS011;6953;48.810;9.204;2022-07-17T07:16:46;0.10;;;0.10;;
13764;SDS011;6953;48.810;9.204;2022-07-17T07:19:12;0.10;;;0.10;;
13764;SDS011;6953;48.810;9.204;2022-07-17T07:21:37;0.10;;;0.10;;
13764;SDS011;6953;48.810;9.204;2022-07-17T07:24:03;0.08;;;0.08;;
13764;SDS011;6953;48.810;9.204;2022-07-17T07:26:29;0.00;;;0.00;;
13764;SDS011;6953;48.810;9.204;2022-07-17T07:28:54;0.00;;;0.00;;
13764;SDS011;6953;48.810;9.204;2022-07-17T07:31:20;0.00;;;0.00;;
13764;SDS011;6953;48.810;9.204;2022-07-17T07:33:46;0.00;;;0.00;;
13764;SDS011;6953;48.810;9.204;2022-07-17T07:36:11;0.00;;;0.00;;
13764;SDS011;6953;48.810;9.204;2022-07-17T07:38:37;0.10;;;0.10;;
13764;SDS011;6953;48.810;9.204;2022-07-17T07:41:03;0.00;;;0.00;;
13764;SDS011;6953;48.810;9.204;2022-07-17T07:43:29;0.00;;;0.00;;
13764;SDS011;6953;48.810;9.204;2022-07-17T07:45:54;0.00;;;0.00;;
13764;SDS011;6953;48.810;9.204;2022-07-17T07:48:20;0.00;;;0.00;;
13764;SDS011;6953;48.810;9.204;2022-07-17T07:50:45;0.00;;;0.00;;
13764;SDS011;6953;48.810;9.204;2022-07-17T07:53:11;0.00;;;0.00;;
13764;SDS011;6953;48.810;9.204;2022-07-17T07:55:36;0.00;;;0.00;;
13764;SDS011;6953;48.810;9.204;2022-07-17T07:58:06;0.00;;;0.00;;
13764;SDS011;6953;48.810;9.204;2022-07-17T08:00:32;0.00;;;0.00;;
13764;SDS011;6953;48.810;9.204;2022-07-17T08:02:58;0.00;;;0.00;;
13764;SDS011;6953;48.810;9.204;2022-07-17T08:05:24;0.00;;;0.00;;
13764;SDS011;6953;48.810;9.204;2022-07-17T08:07:50;0.10;;;0.10;;
13764;SDS011;6953;48.810;9.204;2022-07-17T08:10:16;0.00;;;0.00;;
13764;SDS011;6953;48.810;9.204;2022-07-17T08:12:44;0.10;;;0.10;;
13764;SDS011;6953;48.810;9.204;2022-07-17T08:15:10;0.00;;;0.00;;
13764;SDS011;6953;48.810;9.204;2022-07-17T08:17:35;0.10;;;0.10;;
13764;SDS011;6953;48.810;9.204;2022-07-17T08:20:00;0.00;;;0.00;;
13764;SDS011;6953;48.810;9.204;2022-07-17T08:22:26;0.00;;;0.00;;
13764;SDS011;6953;48.810;9.204;2022-07-17T08:24:51;0.03;;;0.03;;
13764;SDS011;6953;48.810;9.204;2022-07-17T08:27:17;0.00;;;0.00;;
13764;SDS011;6953;48.810;9.204;2022-07-17T08:29:42;0.10;;;0.10;;
13764;SDS011;6953;48.810;9.204;2022-07-17T08:32:07;0.00;;;0.00;;
13764;SDS011;6953;48.810;9.204;2022-07-17T08:34:33;0.10;;;0.10;;
13764;SDS011;6953;48.810;9.204;2022-07-17T08:36:58;0.10;;;0.10;;
13764;SDS011;6953;48.810;9.204;2022-07-17T08:39:23;0.10;;;0.10;;
13764;SDS011;6953;48.810;9.204;2022-07-17T08:41:49;0.00;;;0.00;;
13764;SDS011;6953;48.810;9.204;2022-07-17T08:44:14;0.10;;;0.10;;
13764;SDS011;6953;48.810;9.204;2022-07-17T08:46:40;0.00;;;0.00;;
13764;SDS011;6953;48.810;9.204;2022-07-17T08:49:06;0.00;;;0.00;;
13764;SDS011;6953;48.810;9.204;2022-07-17T08:51:32;0.00;;;0.00;;
13764;SDS011;6953;48.810;9.204;2022-07-17T08:53:59;0.00;;;0.00;;
13764;SDS011;6953;48.810;9.204;2022-07-17T08:56:26;0.00;;;0.00;;
13764;SDS011;6953;48.810;9.204;2022-07-17T08:58:52;0.00;;;0.00;;
13764;SDS011;6953;48.810;9.204;2022-07-17T09:01:18;0.00;;;0.00;;
13764;SDS011;6953;48.810;9.204;2022-07-17T09:06:23;0.00;;;0.00;;
13764;SDS011;6953;48.810;9.204;2022-07-17T09:08:59;0.00;;;0.00;;
13764;SDS011;6953;48.810;9.204;2022-07-17T09:11:48;0.00;;;0.00;;
13764;SDS011;6953;48.810;9.204;2022-07-17T09:14:16;0.00;;;0.00;;
13764;SDS011;6953;48.810;9.204;2022-07-17T09:16:54;0.00;;;0.00;;
13764;SDS011;6953;48.810;9.204;2022-07-17T09:19:26;0.00;;;0.00;;
13764;SDS011;6953;48.810;9.204;2022-07-17T09:22:18;0.00;;;0.00;;
13764;SDS011;6953;48.810;9.204;2022-07-17T09:27:14;0.00;;;0.00;;
13764;SDS011;6953;48.810;9.204;2022-07-17T09:30:02;0.00;;;0.00;;
13764;SDS011;6953;48.810;9.204;2022-07-17T09:32:31;0.00;;;0.00;;
13764;SDS011;6953;48.810;9.204;2022-07-17T09:35:01;0.00;;;0.00;;
13764;SDS011;6953;48.810;9.204;2022-07-17T09:37:28;0.00;;;0.00;;
13764;SDS011;6953;48.810;9.204;2022-07-17T09:39:55;0.00;;;0.00;;
13764;SDS011;6953;48.810;9.204;2022-07-17T09:42:25;0.00;;;0.00;;
13764;SDS011;6953;48.810;9.204;2022-07-17T09:44:56;0.00;;;0.00;;
13764;SDS011;6953;48.810;9.204;2022-07-17T09:47:24;0.00;;;0.00;;
13764;SDS011;6953;48.810;9.204;2022-07-17T09:49:52;0.00;;;0.00;;
13764;SDS011;6953;48.810;9.204;2022-07-17T09:52:19;0.00;;;0.00;;
13764;SDS011;6953;48.810;9.204;2022-07-17T09:54:45;0.00;;;0.00;;
13764;SDS011;6953;48.810;9.204;2022-07-17T09:57:13;0.00;;;0.00;;
13764;SDS011;6953;48.810;9.204;2022-07-17T09:59:39;0.00;;;0.00;;
13764;SDS011;6953;48.810;9.204;2022-07-17T10:02:06;0.00;;;0.00;;
13764;SDS011;6953;48.810;9.204;2022-07-17T10:04:31;0.00;;;0.00;;
13764;SDS011;6953;48.810;9.204;2022-07-17T10:06:59;0.00;;;0.00;;
13764;SDS011;6953;48.810;9.204;2022-07-17T10:09:24;0.00;;;0.00;;
13764;SDS011;6953;48.810;9.204;2022-07-17T10:11:50;0.00;;;0.00;;
13764;SDS011;6953;48.810;9.204;2022-07-17T10:14:16;0.00;;;0.00;;
13764;SDS011;6953;48.810;9.204;2022-07-17T10:16:43;0.00;;;0.00;;
13764;SDS011;6953;48.810;9.204;2022-07-17T10:19:17;0.00;;;0.00;;
13764;SDS011;6953;48.810;9.204;2022-07-17T10:21:57;0.00;;;0.00;;
13764;SDS011;6953;48.810;9.204;2022-07-17T10:24:25;0.00;;;0.00;;
13764;SDS011;6953;48.810;9.204;2022-07-17T10:26:53;0.00;;;0.00;;
13764;SDS011;6953;48.810;9.204;2022-07-17T10:29:36;0.00;;;0.00;;
13764;SDS011;6953;48.810;9.204;2022-07-17T10:32:08;0.00;;;0.00;;
13764;SDS011;6953;48.810;9.204;2022-07-17T10:34:40;0.00;;;0.00;;
13764;SDS011;6953;48.810;9.204;2022-07-17T10:37:18;0.00;;;0.00;;
13764;SDS011;6953;48.810;9.204;2022-07-17T10:40:02;0.00;;;0.00;;
13764;SDS011;6953;48.810;9.204;2022-07-17T10:45:15;0.00;;;0.00;;
13764;SDS011;6953;48.810;9.204;2022-07-17T10:47:44;0.00;;;0.00;;
13764;SDS011;6953;48.810;9.204;2022-07-17T10:50:14;0.00;;;0.00;;
13764;SDS011;6953;48.810;9.204;2022-07-17T10:52:41;0.00;;;0.00;;
13764;SDS011;6953;48.810;9.204;2022-07-17T10:55:17;0.00;;;0.00;;
13764;SDS011;6953;48.810;9.204;2022-07-17T10:57:45;0.00;;;0.00;;
13764;SDS011;6953;48.810;9.204;2022-07-17T11:00:12;0.00;;;0.00;;
13764;SDS011;6953;48.810;9.204;2022-07-17T11:02:38;0.00;;;0.00;;
13764;SDS011;6953;48.810;9.204;2022-07-17T11:05:07;0.00;;;0.00;;
13764;SDS011;6953;48.810;9.204;2022-07-17T11:07:33;0.00;;;0.00;;
13764;SDS011;6953;48.810;9.204;2022-07-17T11:09:58;0.00;;;0.00;;
13764;SDS011;6953;48.810;9.204;2022-07-17T11:12:34;0.00;;;0.00;;
13764;SDS011;6953;48.810;9.204;2022-07-17T11:15:00;0.00;;;0.00;;
13764;SDS011;6953;48.810;9.204;2022-07-17T11:17:29;0.00;;;0.00;;
13764;SDS011;6953;48.810;9.204;2022-07-17T11:19:54;0.00;;;0.00;;
13764;SDS011;6953;48.810;9.204;2022-07-17T11:22:23;0.00;;;0.00;;
13764;SDS011;6953;48.810;9.204;2022-07-17T11:24:49;0.00;;;0.00;;
13764;SDS011;6953;48.810;9.204;2022-07-17T11:27:27;0.00;;;0.00;;
13764;SDS011;6953;48.810;9.204;2022-07-17T11:29:55;0.00;;;0.00;;
13764;SDS011;6953;48.810;9.204;2022-07-17T11:32:32;0.00;;;0.00;;
13764;SDS011;6953;48.810;9.204;2022-07-17T11:34:58;0.00;;;0.00;;
13764;SDS011;6953;48.810;9.204;2022-07-17T11:37:27;0.00;;;0.00;;
13764;SDS011;6953;48.810;9.204;2022-07-17T11:39:54;0.00;;;0.00;;
13764;SDS011;6953;48.810;9.204;2022-07-17T11:42:21;0.00;;;0.00;;
13764;SDS011;6953;48.810;9.204;2022-07-17T11:44:53;0.00;;;0.00;;
13764;SDS011;6953;48.810;9.204;2022-07-17T11:47:24;0.00;;;0.00;;
13764;SDS011;6953;48.810;9.204;2022-07-17T11:49:51;0.00;;;0.00;;
13764;SDS011;6953;48.810;9.204;2022-07-17T11:52:38;0.00;;;0.00;;
13764;SDS011;6953;48.810;9.204;2022-07-17T11:55:05;0.00;;;0.00;;
13764;SDS011;6953;48.810;9.204;2022-07-17T11:57:40;0.00;;;0.00;;
13764;SDS011;6953;48.810;9.204;2022-07-17T12:00:15;0.00;;;0.00;;
13764;SDS011;6953;48.810;9.204;2022-07-17T12:02:42;0.00;;;0.00;;
13764;SDS011;6953;48.810;9.204;2022-07-17T12:05:08;0.00;;;0.00;;
13764;SDS011;6953;48.810;9.204;2022-07-17T12:07:41;0.00;;;0.00;;
13764;SDS011;6953;48.810;9.204;2022-07-17T12:10:16;0.00;;;0.00;;
13764;SDS011;6953;48.810;9.204;2022-07-17T12:13:03;0.00;;;0.00;;
13764;SDS011;6953;48.810;9.204;2022-07-17T12:15:37;0.00;;;0.00;;
13764;SDS011;6953;48.810;9.204;2022-07-17T12:18:03;0.00;;;0.00;;
13764;SDS011;6953;48.810;9.204;2022-07-17T12:20:40;0.00;;;0.00;;
13764;SDS011;6953;48.810;9.204;2022-07-17T12:23:09;0.00;;;0.00;;
13764;SDS011;6953;48.810;9.204;2022-07-17T12:25:50;0.00;;;0.00;;
13764;SDS011;6953;48.810;9.204;2022-07-17T12:28:15;0.00;;;0.00;;
13764;SDS011;6953;48.810;9.204;2022-07-17T12:30:40;0.00;;;0.00;;
13764;SDS011;6953;48.810;9.204;2022-07-17T12:33:06;0.00;;;0.00;;
13764;SDS011;6953;48.810;9.204;2022-07-17T12:35:31;0.00;;;0.00;;
13764;SDS011;6953;48.810;9.204;2022-07-17T12:37:56;0.00;;;0.00;;
13764;SDS011;6953;48.810;9.204;2022-07-17T12:40:22;0.00;;;0.00;;
13764;SDS011;6953;48.810;9.204;2022-07-17T12:42:47;0.00;;;0.00;;
13764;SDS011;6953;48.810;9.204;2022-07-17T12:45:12;0.00;;;0.00;;
13764;SDS011;6953;48.810;9.204;2022-07-17T12:47:37;0.00;;;0.00;;
13764;SDS011;6953;48.810;9.204;2022-07-17T12:50:03;0.00;;;0.00;;
13764;SDS011;6953;48.810;9.204;2022-07-17T12:52:29;0.00;;;0.00;;
13764;SDS011;6953;48.810;9.204;2022-07-17T12:54:54;0.00;;;0.00;;
13764;SDS011;6953;48.810;9.204;2022-07-17T12:57:20;0.00;;;0.00;;
13764;SDS011;6953;48.810;9.204;2022-07-17T12:59:45;0.00;;;0.00;;
13764;SDS011;6953;48.810;9.204;2022-07-17T13:02:10;0.00;;;0.00;;
13764;SDS011;6953;48.810;9.204;2022-07-17T13:04:36;0.00;;;0.00;;
13764;SDS011;6953;48.810;9.204;2022-07-17T13:07:02;0.00;;;0.00;;
13764;SDS011;6953;48.810;9.204;2022-07-17T13:09:27;0.00;;;0.00;;
13764;SDS011;6953;48.810;9.204;2022-07-17T13:11:52;0.00;;;0.00;;
13764;SDS011;6953;48.810;9.204;2022-07-17T13:14:18;0.00;;;0.00;;
13764;SDS011;6953;48.810;9.204;2022-07-17T13:16:43;0.00;;;0.00;;
13764;SDS011;6953;48.810;9.204;2022-07-17T13:19:09;0.00;;;0.00;;
13764;SDS011;6953;48.810;9.204;2022-07-17T13:21:34;0.00;;;0.00;;
13764;SDS011;6953;48.810;9.204;2022-07-17T13:23:59;0.00;;;0.00;;
13764;SDS011;6953;48.810;9.204;2022-07-17T13:26:25;0.00;;;0.00;;
13764;SDS011;6953;48.810;9.204;2022-07-17T13:28:50;0.00;;;0.00;;
13764;SDS011;6953;48.810;9.204;2022-07-17T13:31:16;0.00;;;0.00;;
13764;SDS011;6953;48.810;9.204;2022-07-17T13:33:41;0.00;;;0.00;;
13764;SDS011;6953;48.810;9.204;2022-07-17T13:36:07;0.00;;;0.00;;
13764;SDS011;6953;48.810;9.204;2022-07-17T13:38:32;0.00;;;0.00;;
13764;SDS011;6953;48.810;9.204;2022-07-17T13:40:57;0.00;;;0.00;;
13764;SDS011;6953;48.810;9.204;2022-07-17T13:43:23;0.00;;;0.00;;
13764;SDS011;6953;48.810;9.204;2022-07-17T13:45:48;0.00;;;0.00;;
13764;SDS011;6953;48.810;9.204;2022-07-17T13:48:14;0.00;;;0.00;;
13764;SDS011;6953;48.810;9.204;2022-07-17T13:50:40;0.00;;;0.00;;
13764;SDS011;6953;48.810;9.204;2022-07-17T13:53:06;0.00;;;0.00;;
13764;SDS011;6953;48.810;9.204;2022-07-17T13:55:31;0.00;;;0.00;;
13764;SDS011;6953;48.810;9.204;2022-07-17T13:57:57;0.00;;;0.00;;
13764;SDS011;6953;48.810;9.204;2022-07-17T14:00:23;0.00;;;0.00;;
13764;SDS011;6953;48.810;9.204;2022-07-17T14:02:49;0.00;;;0.00;;
13764;SDS011;6953;48.810;9.204;2022-07-17T14:05:14;0.00;;;0.00;;
13764;SDS011;6953;48.810;9.204;2022-07-17T14:07:40;0.00;;;0.00;;
13764;SDS011;6953;48.810;9.204;2022-07-17T14:10:05;0.00;;;0.00;;
13764;SDS011;6953;48.810;9.204;2022-07-17T14:12:31;0.00;;;0.00;;
13764;SDS011;6953;48.810;9.204;2022-07-17T14:14:57;0.00;;;0.00;;
13764;SDS011;6953;48.810;9.204;2022-07-17T14:17:22;0.00;;;0.00;;
13764;SDS011;6953;48.810;9.204;2022-07-17T14:19:47;0.00;;;0.00;;
13764;SDS011;6953;48.810;9.204;2022-07-17T14:22:13;0.00;;;0.00;;
13764;SDS011;6953;48.810;9.204;2022-07-17T14:24:38;0.00;;;0.00;;
13764;SDS011;6953;48.810;9.204;2022-07-17T14:27:04;0.00;;;0.00;;
13764;SDS011;6953;48.810;9.204;2022-07-17T14:29:29;0.00;;;0.00;;
13764;SDS011;6953;48.810;9.204;2022-07-17T14:31:54;0.00;;;0.00;;
13764;SDS011;6953;48.810;9.204;2022-07-17T14:34:20;0.00;;;0.00;;
13764;SDS011;6953;48.810;9.204;2022-07-17T14:36:46;0.00;;;0.00;;
13764;SDS011;6953;48.810;9.204;2022-07-17T14:39:12;0.00;;;0.00;;
13764;SDS011;6953;48.810;9.204;2022-07-17T14:41:38;0.00;;;0.00;;
13764;SDS011;6953;48.810;9.204;2022-07-17T14:44:04;0.00;;;0.00;;
13764;SDS011;6953;48.810;9.204;2022-07-17T14:46:29;0.00;;;0.00;;
13764;SDS011;6953;48.810;9.204;2022-07-17T14:48:54;0.00;;;0.00;;
13764;SDS011;6953;48.810;9.204;2022-07-17T14:51:20;0.00;;;0.00;;
13764;SDS011;6953;48.810;9.204;2022-07-17T14:53:45;0.00;;;0.00;;
13764;SDS011;6953;48.810;9.204;2022-07-17T14:56:11;0.00;;;0.00;;
13764;SDS011;6953;48.810;9.204;2022-07-17T14:58:36;0.00;;;0.00;;
13764;SDS011;6953;48.810;9.204;2022-07-17T15:01:01;0.00;;;0.00;;
13764;SDS011;6953;48.810;9.204;2022-07-17T15:03:27;0.00;;;0.00;;
13764;SDS011;6953;48.810;9.204;2022-07-17T15:05:52;0.00;;;0.00;;